sensor_id;sensor_type;location;lat;lon;timestamp;P1;durP1;ratioP1;P2;durP2;ratioP2
71869;SDS011;59739;47.696;11.746;2023-07-13T00:00:04;3.92;;;1.55;;
71869;SDS011;59739;47.696;11.746;2023-07-13T00:02:40;3.55;;;1.77;;
71869;SDS011;59739;47.696;11.746;2023-07-13T00:05:06;2.67;;;1.63;;
71869;SDS011;59739;47.696;11.746;2023-07-13T00:07:32;2.08;;;1.70;;
71869;SDS011;59739;47.696;11.746;2023-07-13T00:09:59;2.22;;;1.63;;
71869;SDS011;59739;47.696;11.746;2023-07-13T00:15:04;2.72;;;1.80;;
71869;SDS011;59739;47.696;11.746;2023-07-13T00:17:36;1.52;;;1.40;;
71869;SDS011;59739;47.696;11.746;2023-07-13T00:20:04;1.50;;;1.40;;
71869;SDS011;59739;47.696;11.746;2023-07-13T00:22:32;2.10;;;1.45;;
71869;SDS011;59739;47.696;11.746;2023-07-13T00:24:58;2.05;;;1.55;;
71869;SDS011;59739;47.696;11.746;2023-07-13T00:27:24;1.30;;;1.10;;
71869;SDS011;59739;47.696;11.746;2023-07-13T00:29:57;2.28;;;1.25;;
71869;SDS011;59739;47.696;11.746;2023-07-13T00:32:24;1.85;;;1.02;;
71869;SDS011;59739;47.696;11.746;2023-07-13T00:34:51;1.05;;;0.90;;
71869;SDS011;59739;47.696;11.746;2023-07-13T00:37:17;1.27;;;1.17;;
71869;SDS011;59739;47.696;11.746;2023-07-13T00:39:44;2.92;;;1.02;;
71869;SDS011;59739;47.696;11.746;2023-07-13T00:42:10;2.50;;;1.30;;
71869;SDS011;59739;47.696;11.746;2023-07-13T00:44:36;1.20;;;1.10;;
71869;SDS011;59739;47.696;11.746;2023-07-13T00:47:04;1.55;;;1.10;;
71869;SDS011;59739;47.696;11.746;2023-07-13T00:49:31;2.03;;;1.40;;
71869;SDS011;59739;47.696;11.746;2023-07-13T00:52:00;2.67;;;1.50;;
71869;SDS011;59739;47.696;11.746;2023-07-13T00:54:38;1.67;;;1.23;;
71869;SDS011;59739;47.696;11.746;2023-07-13T00:57:10;1.60;;;1.33;;
71869;SDS011;59739;47.696;11.746;2023-07-13T00:59:41;3.22;;;1.45;;
71869;SDS011;59739;47.696;11.746;2023-07-13T01:02:12;4.25;;;1.30;;
71869;SDS011;59739;47.696;11.746;2023-07-13T01:04:38;2.65;;;1.35;;
71869;SDS011;59739;47.696;11.746;2023-07-13T01:07:04;1.67;;;1.27;;
71869;SDS011;59739;47.696;11.746;2023-07-13T01:09:32;2.33;;;1.30;;
71869;SDS011;59739;47.696;11.746;2023-07-13T01:11:58;1.63;;;1.30;;
71869;SDS011;59739;47.696;11.746;2023-07-13T01:14:24;1.75;;;1.30;;
71869;SDS011;59739;47.696;11.746;2023-07-13T01:16:50;2.00;;;1.75;;
71869;SDS011;59739;47.696;11.746;2023-07-13T01:19:27;3.00;;;1.27;;
71869;SDS011;59739;47.696;11.746;2023-07-13T01:22:05;2.03;;;1.90;;
71869;SDS011;59739;47.696;11.746;2023-07-13T01:24:37;1.40;;;1.30;;
71869;SDS011;59739;47.696;11.746;2023-07-13T01:27:05;1.67;;;1.30;;
71869;SDS011;59739;47.696;11.746;2023-07-13T01:29:34;3.15;;;1.58;;
71869;SDS011;59739;47.696;11.746;2023-07-13T01:32:07;2.42;;;1.30;;
71869;SDS011;59739;47.696;11.746;2023-07-13T01:34:40;2.22;;;1.23;;
71869;SDS011;59739;47.696;11.746;2023-07-13T01:37:08;1.70;;;1.25;;
71869;SDS011;59739;47.696;11.746;2023-07-13T01:39:37;1.83;;;1.30;;
71869;SDS011;59739;47.696;11.746;2023-07-13T01:42:04;2.50;;;1.20;;
71869;SDS011;59739;47.696;11.746;2023-07-13T01:44:30;1.60;;;1.30;;
71869;SDS011;59739;47.696;11.746;2023-07-13T01:46:57;2.28;;;1.38;;
71869;SDS011;59739;47.696;11.746;2023-07-13T01:49:23;2.60;;;1.65;;
71869;SDS011;59739;47.696;11.746;2023-07-13T01:51:49;1.73;;;1.17;;
71869;SDS011;59739;47.696;11.746;2023-07-13T01:54:15;2.15;;;1.40;;
71869;SDS011;59739;47.696;11.746;2023-07-13T01:56:42;3.05;;;1.75;;
71869;SDS011;59739;47.696;11.746;2023-07-13T01:59:08;1.25;;;1.15;;
71869;SDS011;59739;47.696;11.746;2023-07-13T02:01:35;1.60;;;1.23;;
71869;SDS011;59739;47.696;11.746;2023-07-13T02:04:01;1.40;;;1.30;;
71869;SDS011;59739;47.696;11.746;2023-07-13T02:06:32;1.60;;;1.20;;
71869;SDS011;59739;47.696;11.746;2023-07-13T02:08:58;2.90;;;1.38;;
71869;SDS011;59739;47.696;11.746;2023-07-13T02:11:25;2.25;;;1.13;;
71869;SDS011;59739;47.696;11.746;2023-07-13T02:13:58;2.17;;;1.20;;
71869;SDS011;59739;47.696;11.746;2023-07-13T02:16:27;1.95;;;1.40;;
71869;SDS011;59739;47.696;11.746;2023-07-13T02:18:53;1.80;;;1.38;;
71869;SDS011;59739;47.696;11.746;2023-07-13T02:21:21;1.48;;;1.25;;
71869;SDS011;59739;47.696;11.746;2023-07-13T02:23:51;2.05;;;1.20;;
71869;SDS011;59739;47.696;11.746;2023-07-13T02:26:18;1.40;;;1.27;;
71869;SDS011;59739;47.696;11.746;2023-07-13T02:28:45;1.50;;;1.30;;
71869;SDS011;59739;47.696;11.746;2023-07-13T02:31:12;1.50;;;1.38;;
71869;SDS011;59739;47.696;11.746;2023-07-13T02:33:40;2.78;;;1.48;;
71869;SDS011;59739;47.696;11.746;2023-07-13T02:36:07;1.83;;;0.95;;
71869;SDS011;59739;47.696;11.746;2023-07-13T02:38:34;1.65;;;1.40;;
71869;SDS011;59739;47.696;11.746;2023-07-13T02:41:05;1.70;;;1.40;;
71869;SDS011;59739;47.696;11.746;2023-07-13T02:43:33;2.47;;;1.40;;
71869;SDS011;59739;47.696;11.746;2023-07-13T02:46:00;1.25;;;1.00;;
71869;SDS011;59739;47.696;11.746;2023-07-13T02:48:34;1.70;;;1.33;;
71869;SDS011;59739;47.696;11.746;2023-07-13T02:51:00;1.90;;;1.38;;
71869;SDS011;59739;47.696;11.746;2023-07-13T02:53:26;1.70;;;1.30;;
71869;SDS011;59739;47.696;11.746;2023-07-13T02:55:52;1.60;;;1.35;;
71869;SDS011;59739;47.696;11.746;2023-07-13T02:58:18;2.70;;;1.35;;
71869;SDS011;59739;47.696;11.746;2023-07-13T03:00:47;1.83;;;1.27;;
71869;SDS011;59739;47.696;11.746;2023-07-13T03:03:15;1.52;;;1.42;;
71869;SDS011;59739;47.696;11.746;2023-07-13T03:05:43;1.88;;;1.27;;
71869;SDS011;59739;47.696;11.746;2023-07-13T03:08:12;1.50;;;1.23;;
71869;SDS011;59739;47.696;11.746;2023-07-13T03:10:40;2.75;;;1.52;;
71869;SDS011;59739;47.696;11.746;2023-07-13T03:13:08;2.13;;;1.40;;
71869;SDS011;59739;47.696;11.746;2023-07-13T03:15:34;3.20;;;1.55;;
71869;SDS011;59739;47.696;11.746;2023-07-13T03:18:01;1.40;;;1.30;;
71869;SDS011;59739;47.696;11.746;2023-07-13T03:20:27;2.28;;;1.60;;
71869;SDS011;59739;47.696;11.746;2023-07-13T03:22:53;2.17;;;1.40;;
71869;SDS011;59739;47.696;11.746;2023-07-13T03:25:20;2.28;;;1.52;;
71869;SDS011;59739;47.696;11.746;2023-07-13T03:27:47;2.67;;;1.50;;
71869;SDS011;59739;47.696;11.746;2023-07-13T03:30:13;3.78;;;1.60;;
71869;SDS011;59739;47.696;11.746;2023-07-13T03:32:41;1.60;;;1.20;;
71869;SDS011;59739;47.696;11.746;2023-07-13T03:35:08;2.38;;;1.50;;
71869;SDS011;59739;47.696;11.746;2023-07-13T03:37:35;2.50;;;1.30;;
71869;SDS011;59739;47.696;11.746;2023-07-13T03:40:09;1.58;;;1.40;;
71869;SDS011;59739;47.696;11.746;2023-07-13T03:42:38;1.80;;;1.40;;
71869;SDS011;59739;47.696;11.746;2023-07-13T03:45:04;2.17;;;1.70;;
71869;SDS011;59739;47.696;11.746;2023-07-13T03:47:32;2.97;;;1.40;;
71869;SDS011;59739;47.696;11.746;2023-07-13T03:50:00;2.53;;;1.52;;
71869;SDS011;59739;47.696;11.746;2023-07-13T03:52:26;1.63;;;1.52;;
71869;SDS011;59739;47.696;11.746;2023-07-13T03:54:53;2.35;;;1.80;;
71869;SDS011;59739;47.696;11.746;2023-07-13T03:57:20;1.85;;;1.40;;
71869;SDS011;59739;47.696;11.746;2023-07-13T03:59:46;1.65;;;1.50;;
71869;SDS011;59739;47.696;11.746;2023-07-13T04:02:12;2.17;;;1.55;;
71869;SDS011;59739;47.696;11.746;2023-07-13T04:04:38;3.28;;;1.40;;
71869;SDS011;59739;47.696;11.746;2023-07-13T04:07:06;2.35;;;1.50;;
71869;SDS011;59739;47.696;11.746;2023-07-13T04:09:33;2.13;;;1.40;;
71869;SDS011;59739;47.696;11.746;2023-07-13T04:12:00;3.78;;;1.95;;
71869;SDS011;59739;47.696;11.746;2023-07-13T04:14:26;3.25;;;1.60;;
71869;SDS011;59739;47.696;11.746;2023-07-13T04:16:52;2.03;;;1.75;;
71869;SDS011;59739;47.696;11.746;2023-07-13T04:19:19;3.20;;;1.50;;
71869;SDS011;59739;47.696;11.746;2023-07-13T04:21:46;2.92;;;1.50;;
71869;SDS011;59739;47.696;11.746;2023-07-13T04:24:12;1.67;;;1.50;;
71869;SDS011;59739;47.696;11.746;2023-07-13T04:26:38;2.22;;;1.60;;
71869;SDS011;59739;47.696;11.746;2023-07-13T04:29:05;2.35;;;1.55;;
71869;SDS011;59739;47.696;11.746;2023-07-13T04:31:32;1.77;;;1.38;;
71869;SDS011;59739;47.696;11.746;2023-07-13T04:33:58;1.50;;;1.33;;
71869;SDS011;59739;47.696;11.746;2023-07-13T04:36:25;2.20;;;1.35;;
71869;SDS011;59739;47.696;11.746;2023-07-13T04:38:54;2.92;;;1.50;;
71869;SDS011;59739;47.696;11.746;2023-07-13T04:41:20;1.50;;;1.40;;
71869;SDS011;59739;47.696;11.746;2023-07-13T04:43:47;1.92;;;1.60;;
71869;SDS011;59739;47.696;11.746;2023-07-13T04:46:14;4.20;;;1.50;;
71869;SDS011;59739;47.696;11.746;2023-07-13T04:48:45;2.10;;;1.90;;
71869;SDS011;59739;47.696;11.746;2023-07-13T04:51:11;3.20;;;1.65;;
71869;SDS011;59739;47.696;11.746;2023-07-13T04:53:37;4.07;;;1.77;;
71869;SDS011;59739;47.696;11.746;2023-07-13T04:56:03;3.25;;;2.08;;
71869;SDS011;59739;47.696;11.746;2023-07-13T04:58:30;1.95;;;1.60;;
71869;SDS011;59739;47.696;11.746;2023-07-13T05:01:04;3.83;;;1.92;;
71869;SDS011;59739;47.696;11.746;2023-07-13T05:03:31;2.58;;;1.33;;
71869;SDS011;59739;47.696;11.746;2023-07-13T05:06:02;2.00;;;1.58;;
71869;SDS011;59739;47.696;11.746;2023-07-13T05:08:30;3.00;;;1.73;;
71869;SDS011;59739;47.696;11.746;2023-07-13T05:10:56;2.40;;;1.85;;
71869;SDS011;59739;47.696;11.746;2023-07-13T05:13:25;2.60;;;1.50;;
71869;SDS011;59739;47.696;11.746;2023-07-13T05:15:55;2.28;;;1.80;;
71869;SDS011;59739;47.696;11.746;2023-07-13T05:18:26;2.83;;;1.80;;
71869;SDS011;59739;47.696;11.746;2023-07-13T05:20:57;2.88;;;1.27;;
71869;SDS011;59739;47.696;11.746;2023-07-13T05:23:32;2.55;;;1.40;;
71869;SDS011;59739;47.696;11.746;2023-07-13T05:26:00;2.28;;;1.63;;
71869;SDS011;59739;47.696;11.746;2023-07-13T05:28:27;2.65;;;1.63;;
71869;SDS011;59739;47.696;11.746;2023-07-13T05:30:56;3.08;;;1.42;;
71869;SDS011;59739;47.696;11.746;2023-07-13T05:33:23;1.83;;;1.52;;
71869;SDS011;59739;47.696;11.746;2023-07-13T05:35:50;1.95;;;1.50;;
71869;SDS011;59739;47.696;11.746;2023-07-13T05:38:16;4.85;;;1.40;;
71869;SDS011;59739;47.696;11.746;2023-07-13T05:40:43;2.92;;;1.80;;
71869;SDS011;59739;47.696;11.746;2023-07-13T05:43:10;2.72;;;1.60;;
71869;SDS011;59739;47.696;11.746;2023-07-13T05:45:37;1.65;;;1.55;;
71869;SDS011;59739;47.696;11.746;2023-07-13T05:48:03;3.58;;;1.77;;
71869;SDS011;59739;47.696;11.746;2023-07-13T05:50:29;2.33;;;1.75;;
71869;SDS011;59739;47.696;11.746;2023-07-13T05:52:55;1.92;;;1.38;;
71869;SDS011;59739;47.696;11.746;2023-07-13T05:55:21;2.08;;;1.70;;
71869;SDS011;59739;47.696;11.746;2023-07-13T05:57:48;1.70;;;1.60;;
71869;SDS011;59739;47.696;11.746;2023-07-13T06:00:14;1.88;;;1.63;;
71869;SDS011;59739;47.696;11.746;2023-07-13T06:02:41;3.17;;;2.00;;
71869;SDS011;59739;47.696;11.746;2023-07-13T06:05:07;3.35;;;1.65;;
71869;SDS011;59739;47.696;11.746;2023-07-13T06:07:33;6.57;;;2.30;;
71869;SDS011;59739;47.696;11.746;2023-07-13T06:09:59;4.28;;;1.80;;
71869;SDS011;59739;47.696;11.746;2023-07-13T06:12:26;1.90;;;1.70;;
71869;SDS011;59739;47.696;11.746;2023-07-13T06:14:52;2.10;;;1.70;;
71869;SDS011;59739;47.696;11.746;2023-07-13T06:17:18;3.55;;;1.67;;
71869;SDS011;59739;47.696;11.746;2023-07-13T06:19:44;2.50;;;2.05;;
71869;SDS011;59739;47.696;11.746;2023-07-13T06:22:10;4.57;;;2.00;;
71869;SDS011;59739;47.696;11.746;2023-07-13T06:24:36;3.58;;;2.10;;
71869;SDS011;59739;47.696;11.746;2023-07-13T06:27:02;4.05;;;2.20;;
71869;SDS011;59739;47.696;11.746;2023-07-13T06:29:29;2.60;;;1.98;;
71869;SDS011;59739;47.696;11.746;2023-07-13T06:31:55;4.68;;;2.30;;
71869;SDS011;59739;47.696;11.746;2023-07-13T06:34:21;3.55;;;2.50;;
71869;SDS011;59739;47.696;11.746;2023-07-13T06:36:47;2.80;;;2.22;;
71869;SDS011;59739;47.696;11.746;2023-07-13T06:39:12;2.50;;;2.28;;
71869;SDS011;59739;47.696;11.746;2023-07-13T06:41:38;2.58;;;2.05;;
71869;SDS011;59739;47.696;11.746;2023-07-13T06:44:09;3.22;;;2.17;;
71869;SDS011;59739;47.696;11.746;2023-07-13T06:46:35;3.70;;;2.10;;
71869;SDS011;59739;47.696;11.746;2023-07-13T06:49:01;3.85;;;2.30;;
71869;SDS011;59739;47.696;11.746;2023-07-13T06:51:27;3.08;;;2.40;;
71869;SDS011;59739;47.696;11.746;2023-07-13T06:53:53;3.08;;;2.67;;
71869;SDS011;59739;47.696;11.746;2023-07-13T06:56:21;3.17;;;2.40;;
71869;SDS011;59739;47.696;11.746;2023-07-13T06:58:47;2.92;;;2.38;;
71869;SDS011;59739;47.696;11.746;2023-07-13T07:01:13;3.40;;;2.28;;
71869;SDS011;59739;47.696;11.746;2023-07-13T07:03:39;3.35;;;2.42;;
71869;SDS011;59739;47.696;11.746;2023-07-13T07:06:16;3.25;;;2.30;;
71869;SDS011;59739;47.696;11.746;2023-07-13T07:08:45;4.20;;;2.50;;
71869;SDS011;59739;47.696;11.746;2023-07-13T07:11:12;3.20;;;2.20;;
71869;SDS011;59739;47.696;11.746;2023-07-13T07:13:41;3.33;;;2.40;;
71869;SDS011;59739;47.696;11.746;2023-07-13T07:16:07;2.67;;;2.17;;
71869;SDS011;59739;47.696;11.746;2023-07-13T07:18:34;3.38;;;2.33;;
71869;SDS011;59739;47.696;11.746;2023-07-13T07:21:00;4.05;;;2.30;;
71869;SDS011;59739;47.696;11.746;2023-07-13T07:23:26;3.83;;;2.35;;
71869;SDS011;59739;47.696;11.746;2023-07-13T07:25:52;5.63;;;2.67;;
71869;SDS011;59739;47.696;11.746;2023-07-13T07:28:20;3.05;;;2.60;;
71869;SDS011;59739;47.696;11.746;2023-07-13T07:30:46;3.55;;;2.25;;
71869;SDS011;59739;47.696;11.746;2023-07-13T07:33:13;2.65;;;2.42;;
71869;SDS011;59739;47.696;11.746;2023-07-13T07:35:40;3.08;;;2.58;;
71869;SDS011;59739;47.696;11.746;2023-07-13T07:38:07;3.33;;;3.03;;
71869;SDS011;59739;47.696;11.746;2023-07-13T07:40:36;4.32;;;2.17;;
71869;SDS011;59739;47.696;11.746;2023-07-13T07:43:04;2.85;;;1.80;;
71869;SDS011;59739;47.696;11.746;2023-07-13T07:45:32;2.17;;;1.83;;
71869;SDS011;59739;47.696;11.746;2023-07-13T07:47:59;2.15;;;1.63;;
71869;SDS011;59739;47.696;11.746;2023-07-13T07:50:25;2.80;;;1.85;;
71869;SDS011;59739;47.696;11.746;2023-07-13T07:52:53;4.05;;;2.03;;
71869;SDS011;59739;47.696;11.746;2023-07-13T07:55:21;2.92;;;1.80;;
71869;SDS011;59739;47.696;11.746;2023-07-13T07:57:48;2.40;;;1.67;;
71869;SDS011;59739;47.696;11.746;2023-07-13T08:00:15;4.68;;;1.80;;
71869;SDS011;59739;47.696;11.746;2023-07-13T08:02:42;3.25;;;1.80;;
71869;SDS011;59739;47.696;11.746;2023-07-13T08:05:08;4.10;;;2.30;;
71869;SDS011;59739;47.696;11.746;2023-07-13T08:07:35;5.63;;;2.72;;
71869;SDS011;59739;47.696;11.746;2023-07-13T08:10:02;5.05;;;3.05;;
71869;SDS011;59739;47.696;11.746;2023-07-13T08:12:29;4.78;;;2.50;;
71869;SDS011;59739;47.696;11.746;2023-07-13T08:14:59;7.53;;;3.00;;
71869;SDS011;59739;47.696;11.746;2023-07-13T08:17:26;6.00;;;3.10;;
71869;SDS011;59739;47.696;11.746;2023-07-13T08:19:52;5.38;;;2.88;;
71869;SDS011;59739;47.696;11.746;2023-07-13T08:22:18;6.13;;;2.58;;
71869;SDS011;59739;47.696;11.746;2023-07-13T08:24:47;4.35;;;2.70;;
71869;SDS011;59739;47.696;11.746;2023-07-13T08:27:20;4.35;;;2.45;;
71869;SDS011;59739;47.696;11.746;2023-07-13T08:29:47;4.72;;;3.30;;
71869;SDS011;59739;47.696;11.746;2023-07-13T08:32:14;5.93;;;2.85;;
71869;SDS011;59739;47.696;11.746;2023-07-13T08:34:41;2.60;;;2.00;;
71869;SDS011;59739;47.696;11.746;2023-07-13T08:37:08;4.32;;;2.90;;
71869;SDS011;59739;47.696;11.746;2023-07-13T08:39:34;4.55;;;2.72;;
71869;SDS011;59739;47.696;11.746;2023-07-13T08:42:46;3.55;;;2.83;;
71869;SDS011;59739;47.696;11.746;2023-07-13T08:47:44;5.40;;;3.10;;
71869;SDS011;59739;47.696;11.746;2023-07-13T08:53:47;3.67;;;2.65;;
71869;SDS011;59739;47.696;11.746;2023-07-13T08:56:18;4.63;;;3.00;;
71869;SDS011;59739;47.696;11.746;2023-07-13T08:58:51;5.97;;;2.90;;
71869;SDS011;59739;47.696;11.746;2023-07-13T09:04:49;3.63;;;3.00;;
71869;SDS011;59739;47.696;11.746;2023-07-13T09:07:31;4.28;;;2.80;;
71869;SDS011;59739;47.696;11.746;2023-07-13T09:10:41;4.63;;;2.53;;
71869;SDS011;59739;47.696;11.746;2023-07-13T09:16:08;3.08;;;2.55;;
71869;SDS011;59739;47.696;11.746;2023-07-13T09:18:36;4.78;;;2.63;;
71869;SDS011;59739;47.696;11.746;2023-07-13T09:21:11;4.35;;;2.38;;
71869;SDS011;59739;47.696;11.746;2023-07-13T09:23:48;3.40;;;3.00;;
71869;SDS011;59739;47.696;11.746;2023-07-13T09:26:41;5.05;;;2.15;;
71869;SDS011;59739;47.696;11.746;2023-07-13T09:29:11;3.20;;;2.60;;
71869;SDS011;59739;47.696;11.746;2023-07-13T09:31:47;4.00;;;3.03;;
71869;SDS011;59739;47.696;11.746;2023-07-13T09:34:18;3.78;;;3.10;;
71869;SDS011;59739;47.696;11.746;2023-07-13T09:36:44;4.75;;;3.67;;
71869;SDS011;59739;47.696;11.746;2023-07-13T09:39:12;3.83;;;3.10;;
71869;SDS011;59739;47.696;11.746;2023-07-13T09:47:24;4.13;;;3.00;;
71869;SDS011;59739;47.696;11.746;2023-07-13T09:52:23;4.47;;;3.10;;
71869;SDS011;59739;47.696;11.746;2023-07-13T09:54:51;4.07;;;3.50;;
71869;SDS011;59739;47.696;11.746;2023-07-13T09:57:24;3.88;;;3.08;;
71869;SDS011;59739;47.696;11.746;2023-07-13T09:59:53;5.82;;;3.80;;
71869;SDS011;59739;47.696;11.746;2023-07-13T10:02:31;4.38;;;3.40;;
71869;SDS011;59739;47.696;11.746;2023-07-13T10:07:43;6.43;;;3.50;;
71869;SDS011;59739;47.696;11.746;2023-07-13T10:10:17;4.07;;;3.47;;
71869;SDS011;59739;47.696;11.746;2023-07-13T10:12:48;5.50;;;3.10;;
71869;SDS011;59739;47.696;11.746;2023-07-13T10:15:19;4.18;;;2.85;;
71869;SDS011;59739;47.696;11.746;2023-07-13T10:17:50;4.05;;;2.97;;
71869;SDS011;59739;47.696;11.746;2023-07-13T10:20:24;5.30;;;2.85;;
71869;SDS011;59739;47.696;11.746;2023-07-13T10:23:04;5.63;;;2.97;;
71869;SDS011;59739;47.696;11.746;2023-07-13T10:25:36;5.40;;;3.25;;
71869;SDS011;59739;47.696;11.746;2023-07-13T10:31:00;4.40;;;2.95;;
71869;SDS011;59739;47.696;11.746;2023-07-13T10:33:30;6.15;;;3.40;;
71869;SDS011;59739;47.696;11.746;2023-07-13T10:36:16;5.82;;;3.53;;
71869;SDS011;59739;47.696;11.746;2023-07-13T10:39:01;4.78;;;2.97;;
71869;SDS011;59739;47.696;11.746;2023-07-13T10:41:32;3.97;;;3.05;;
71869;SDS011;59739;47.696;11.746;2023-07-13T10:44:06;4.38;;;3.03;;
71869;SDS011;59739;47.696;11.746;2023-07-13T10:46:55;5.63;;;2.80;;
71869;SDS011;59739;47.696;11.746;2023-07-13T10:49:31;5.28;;;2.65;;
71869;SDS011;59739;47.696;11.746;2023-07-13T10:52:00;3.20;;;2.47;;
71869;SDS011;59739;47.696;11.746;2023-07-13T10:54:28;4.05;;;2.80;;
71869;SDS011;59739;47.696;11.746;2023-07-13T10:57:14;4.57;;;2.50;;
71869;SDS011;59739;47.696;11.746;2023-07-13T10:59:46;3.90;;;2.85;;
71869;SDS011;59739;47.696;11.746;2023-07-13T11:02:34;3.60;;;2.63;;
71869;SDS011;59739;47.696;11.746;2023-07-13T11:05:01;3.88;;;2.78;;
71869;SDS011;59739;47.696;11.746;2023-07-13T11:07:55;2.95;;;2.65;;
71869;SDS011;59739;47.696;11.746;2023-07-13T11:16:13;3.40;;;2.47;;
71869;SDS011;59739;47.696;11.746;2023-07-13T11:33:16;3.78;;;2.28;;
71869;SDS011;59739;47.696;11.746;2023-07-13T11:38:36;5.05;;;2.40;;
71869;SDS011;59739;47.696;11.746;2023-07-13T11:41:17;4.00;;;2.08;;
71869;SDS011;59739;47.696;11.746;2023-07-13T11:43:55;2.65;;;2.40;;
71869;SDS011;59739;47.696;11.746;2023-07-13T11:46:32;3.42;;;2.35;;
71869;SDS011;59739;47.696;11.746;2023-07-13T11:48:58;4.68;;;2.70;;
71869;SDS011;59739;47.696;11.746;2023-07-13T11:51:28;4.50;;;2.58;;
71869;SDS011;59739;47.696;11.746;2023-07-13T11:54:00;4.10;;;2.38;;
71869;SDS011;59739;47.696;11.746;2023-07-13T11:58:57;2.75;;;2.30;;
71869;SDS011;59739;47.696;11.746;2023-07-13T12:01:30;3.30;;;2.50;;
71869;SDS011;59739;47.696;11.746;2023-07-13T12:04:00;2.80;;;2.10;;
71869;SDS011;59739;47.696;11.746;2023-07-13T12:06:31;2.83;;;2.10;;
71869;SDS011;59739;47.696;11.746;2023-07-13T12:09:03;1.95;;;1.75;;
71869;SDS011;59739;47.696;11.746;2023-07-13T12:11:40;4.00;;;2.10;;
71869;SDS011;59739;47.696;11.746;2023-07-13T12:14:26;2.20;;;2.00;;
71869;SDS011;59739;47.696;11.746;2023-07-13T12:16:52;3.38;;;1.95;;
71869;SDS011;59739;47.696;11.746;2023-07-13T12:19:20;4.63;;;1.90;;
71869;SDS011;59739;47.696;11.746;2023-07-13T12:21:50;2.08;;;1.27;;
71869;SDS011;59739;47.696;11.746;2023-07-13T12:24:21;3.03;;;1.45;;
71869;SDS011;59739;47.696;11.746;2023-07-13T12:29:25;3.35;;;1.50;;
71869;SDS011;59739;47.696;11.746;2023-07-13T12:31:52;2.70;;;1.70;;
71869;SDS011;59739;47.696;11.746;2023-07-13T12:34:22;1.65;;;1.40;;
71869;SDS011;59739;47.696;11.746;2023-07-13T12:36:54;3.25;;;1.65;;
71869;SDS011;59739;47.696;11.746;2023-07-13T12:42:28;2.67;;;1.73;;
71869;SDS011;59739;47.696;11.746;2023-07-13T12:45:03;2.50;;;1.65;;
71869;SDS011;59739;47.696;11.746;2023-07-13T12:47:55;2.22;;;1.63;;
71869;SDS011;59739;47.696;11.746;2023-07-13T12:50:39;2.05;;;1.45;;
71869;SDS011;59739;47.696;11.746;2023-07-13T12:53:27;1.70;;;1.40;;
71869;SDS011;59739;47.696;11.746;2023-07-13T12:55:56;2.95;;;1.40;;
71869;SDS011;59739;47.696;11.746;2023-07-13T13:00:54;2.22;;;1.58;;
71869;SDS011;59739;47.696;11.746;2023-07-13T13:03:28;1.77;;;1.30;;
71869;SDS011;59739;47.696;11.746;2023-07-13T13:08:45;2.67;;;1.25;;
71869;SDS011;59739;47.696;11.746;2023-07-13T13:11:14;2.25;;;1.30;;
71869;SDS011;59739;47.696;11.746;2023-07-13T13:13:44;3.45;;;1.42;;
71869;SDS011;59739;47.696;11.746;2023-07-13T13:18:47;2.15;;;1.50;;
71869;SDS011;59739;47.696;11.746;2023-07-13T13:21:16;1.92;;;1.10;;
71869;SDS011;59739;47.696;11.746;2023-07-13T13:23:44;1.40;;;1.27;;
71869;SDS011;59739;47.696;11.746;2023-07-13T13:26:11;1.92;;;1.55;;
71869;SDS011;59739;47.696;11.746;2023-07-13T13:28:43;2.20;;;1.58;;
71869;SDS011;59739;47.696;11.746;2023-07-13T13:31:10;3.85;;;1.50;;
71869;SDS011;59739;47.696;11.746;2023-07-13T13:33:39;1.65;;;1.25;;
71869;SDS011;59739;47.696;11.746;2023-07-13T13:38:48;2.00;;;1.42;;
71869;SDS011;59739;47.696;11.746;2023-07-13T13:41:16;2.05;;;1.30;;
71869;SDS011;59739;47.696;11.746;2023-07-13T13:43:42;3.03;;;1.50;;
71869;SDS011;59739;47.696;11.746;2023-07-13T13:46:23;6.25;;;2.35;;
71869;SDS011;59739;47.696;11.746;2023-07-13T13:48:50;2.70;;;1.58;;
71869;SDS011;59739;47.696;11.746;2023-07-13T13:51:20;3.90;;;1.48;;
71869;SDS011;59739;47.696;11.746;2023-07-13T13:53:48;2.72;;;1.15;;
71869;SDS011;59739;47.696;11.746;2023-07-13T13:56:15;2.03;;;1.35;;
71869;SDS011;59739;47.696;11.746;2023-07-13T13:58:44;2.05;;;1.30;;
71869;SDS011;59739;47.696;11.746;2023-07-13T14:01:18;4.03;;;1.40;;
71869;SDS011;59739;47.696;11.746;2023-07-13T14:03:48;2.28;;;1.45;;
71869;SDS011;59739;47.696;11.746;2023-07-13T14:06:16;2.83;;;1.60;;
71869;SDS011;59739;47.696;11.746;2023-07-13T14:08:42;2.55;;;1.40;;
71869;SDS011;59739;47.696;11.746;2023-07-13T14:11:13;3.10;;;1.58;;
71869;SDS011;59739;47.696;11.746;2023-07-13T14:13:42;2.38;;;1.50;;
71869;SDS011;59739;47.696;11.746;2023-07-13T14:16:13;3.25;;;1.90;;
71869;SDS011;59739;47.696;11.746;2023-07-13T14:18:46;3.15;;;1.35;;
71869;SDS011;59739;47.696;11.746;2023-07-13T14:21:14;1.75;;;1.42;;
71869;SDS011;59739;47.696;11.746;2023-07-13T14:23:43;2.17;;;1.73;;
71869;SDS011;59739;47.696;11.746;2023-07-13T14:26:14;2.47;;;1.80;;
71869;SDS011;59739;47.696;11.746;2023-07-13T14:28:43;1.85;;;1.58;;
71869;SDS011;59739;47.696;11.746;2023-07-13T14:31:16;2.95;;;1.83;;
71869;SDS011;59739;47.696;11.746;2023-07-13T14:33:43;3.58;;;1.98;;
71869;SDS011;59739;47.696;11.746;2023-07-13T14:36:20;1.85;;;1.60;;
71869;SDS011;59739;47.696;11.746;2023-07-13T14:38:56;1.83;;;1.70;;
71869;SDS011;59739;47.696;11.746;2023-07-13T14:41:23;2.85;;;1.48;;
71869;SDS011;59739;47.696;11.746;2023-07-13T14:43:50;1.77;;;1.50;;
71869;SDS011;59739;47.696;11.746;2023-07-13T14:46:34;2.25;;;1.35;;
71869;SDS011;59739;47.696;11.746;2023-07-13T14:49:02;1.85;;;1.50;;
71869;SDS011;59739;47.696;11.746;2023-07-13T14:51:32;2.92;;;1.50;;
71869;SDS011;59739;47.696;11.746;2023-07-13T14:54:03;2.38;;;1.65;;
71869;SDS011;59739;47.696;11.746;2023-07-13T14:58:57;2.60;;;1.60;;
71869;SDS011;59739;47.696;11.746;2023-07-13T15:01:23;3.05;;;1.67;;
71869;SDS011;59739;47.696;11.746;2023-07-13T15:03:50;4.20;;;1.80;;
71869;SDS011;59739;47.696;11.746;2023-07-13T15:06:17;3.03;;;1.35;;
71869;SDS011;59739;47.696;11.746;2023-07-13T15:08:44;2.10;;;1.35;;
71869;SDS011;59739;47.696;11.746;2023-07-13T15:11:15;1.98;;;1.55;;
71869;SDS011;59739;47.696;11.746;2023-07-13T15:13:44;2.92;;;1.60;;
71869;SDS011;59739;47.696;11.746;2023-07-13T15:16:15;2.95;;;1.70;;
71869;SDS011;59739;47.696;11.746;2023-07-13T15:18:48;3.10;;;1.77;;
71869;SDS011;59739;47.696;11.746;2023-07-13T15:21:22;4.07;;;1.67;;
71869;SDS011;59739;47.696;11.746;2023-07-13T15:23:49;3.67;;;1.40;;
71869;SDS011;59739;47.696;11.746;2023-07-13T15:26:17;1.95;;;1.60;;
71869;SDS011;59739;47.696;11.746;2023-07-13T15:28:44;1.73;;;1.63;;
71869;SDS011;59739;47.696;11.746;2023-07-13T15:31:19;2.33;;;1.52;;
71869;SDS011;59739;47.696;11.746;2023-07-13T15:33:49;2.05;;;1.30;;
71869;SDS011;59739;47.696;11.746;2023-07-13T15:36:18;2.53;;;1.30;;
71869;SDS011;59739;47.696;11.746;2023-07-13T15:38:48;2.25;;;1.45;;
71869;SDS011;59739;47.696;11.746;2023-07-13T15:41:20;1.55;;;1.40;;
71869;SDS011;59739;47.696;11.746;2023-07-13T15:43:50;1.83;;;1.23;;
71869;SDS011;59739;47.696;11.746;2023-07-13T15:46:19;2.03;;;1.80;;
71869;SDS011;59739;47.696;11.746;2023-07-13T15:48:47;2.10;;;1.30;;
71869;SDS011;59739;47.696;11.746;2023-07-13T15:53:52;2.25;;;1.50;;
71869;SDS011;59739;47.696;11.746;2023-07-13T15:56:21;1.55;;;1.38;;
71869;SDS011;59739;47.696;11.746;2023-07-13T15:58:51;2.80;;;1.45;;
71869;SDS011;59739;47.696;11.746;2023-07-13T16:01:18;5.40;;;1.60;;